Time;durP1;ratioP1;P1;durP2;ratioP2;P2;SDS_P1;SDS_P2;PMS_P1;PMS_P2;Temp;Humidity;BMP_temperature;BMP_pressure;BME280_temperature;BME280_humidity;BME280_pressure;Samples;Min_cycle;Max_cycle;Signal;HPM_P1;HPM_P2
2022/06/29 00:00:12;;;;;;;;;;;;;;;19.42;100.00;98444.47;1683111;85;22600;-86
2022/06/29 00:02:40;;;;;;;;;;;;;;;19.39;100.00;98440.30;1681415;84;21505;-84
2022/06/29 00:05:10;;;;;;;;;;;;;;;19.35;100.00;98437.64;1673166;84;35495;-89
2022/06/29 00:07:38;;;;;;;;;;;;;;;19.34;100.00;98441.78;1678835;84;20236;-85
2022/06/29 00:10:04;;;;;;;;;;;;;;;19.43;100.00;98440.30;1685383;84;24813;-85
2022/06/29 00:12:31;;;;;;;;;;;;;;;19.58;100.00;98436.56;1691423;84;21964;-84
2022/06/29 00:14:57;;;;;;;;;;;;;;;19.77;100.00;98446.03;1696805;84;26080;-84
2022/06/29 00:17:26;;;;;;;;;;;;;;;19.88;100.00;98445.70;1699375;84;24505;-88
2022/06/29 00:19:52;;;;;;;;;;;;;;;19.94;100.00;98443.72;1697187;84;20152;-84
2022/06/29 00:22:19;;;;;;;;;;;;;;;19.97;100.00;98438.06;1673023;84;20222;-83
2022/06/29 00:24:44;;;;;;;;;;;;;;;20.00;100.00;98435.09;1700975;84;22097;-83
2022/06/29 00:27:11;;;;;;;;;;;;;;;19.96;100.00;98428.45;1699213;84;21020;-84
2022/06/29 00:29:37;;;;;;;;;;;;;;;19.72;100.00;98423.13;1699145;84;24356;-89
2022/06/29 00:32:03;;;;;;;;;;;;;;;19.48;100.00;98413.30;1699056;84;20267;-88
2022/06/29 00:34:30;;;;;;;;;;;;;;;19.31;100.00;98402.31;1699133;84;25502;-84
2022/06/29 00:36:56;;;;;;;;;;;;;;;19.15;100.00;98385.83;1695968;84;21983;-84
2022/06/29 00:39:22;;;;;;;;;;;;;;;19.01;100.00;98370.05;1699581;84;21077;-88
2022/06/29 00:41:53;;;;;;;;;;;;;;;18.88;100.00;98369.67;1694128;84;20267;-88
2022/06/29 00:44:22;;;;;;;;;;;;;;;18.80;100.00;98368.34;1698556;84;20747;-88
2022/06/29 00:46:53;;;;;;;;;;;;;;;18.93;100.00;98379.83;1698983;84;25369;-86
2022/06/29 00:49:19;;;;;;;;;;;;;;;19.09;100.00;98392.61;1695189;84;21956;-87
2022/06/29 00:51:49;;;;;;;;;;;;;;;19.19;100.00;98394.66;1698408;84;26124;-83
2022/06/29 00:54:17;;;;;;;;;;;;;;;19.24;100.00;98390.19;1695219;84;25213;-86
2022/06/29 00:56:43;;;;;;;;;;;;;;;19.35;100.00;98396.51;1698149;84;20470;-84
2022/06/29 00:59:11;;;;;;;;;;;;;;;19.46;100.00;98392.25;1698977;84;25619;-89
2022/06/29 01:01:42;;;;;;;;;;;;;;;19.54;100.00;98393.56;1698805;84;22665;-84
2022/06/29 01:04:14;;;;;;;;;;;;;;;19.63;100.00;98397.91;1700109;84;26035;-89
2022/06/29 01:06:41;;;;;;;;;;;;;;;19.68;100.00;98401.39;1696509;84;24678;-84
2022/06/29 01:09:07;;;;;;;;;;;;;;;19.70;100.00;98395.89;1697331;83;20183;-85
2022/06/29 01:11:33;;;;;;;;;;;;;;;19.73;100.00;98391.59;1695716;84;24848;-84
2022/06/29 01:14:00;;;;;;;;;;;;;;;19.77;100.00;98389.77;1696817;84;22073;-86
2022/06/29 01:16:26;;;;;;;;;;;;;;;19.81;100.00;98385.77;1696391;84;26085;-84
2022/06/29 01:18:52;;;;;;;;;;;;;;;19.84;100.00;98388.11;1698231;84;25144;-84
2022/06/29 01:21:26;;;;;;;;;;;;;;;19.84;100.00;98392.09;1698077;84;20242;-84
2022/06/29 01:23:52;;;;;;;;;;;;;;;19.83;100.00;98388.27;1695482;84;24764;-86
2022/06/29 01:26:18;;;;;;;;;;;;;;;19.82;100.00;98395.90;1700113;84;20384;-87
2022/06/29 01:28:46;;;;;;;;;;;;;;;19.81;100.00;98391.58;1696382;84;21053;-89
2022/06/29 01:31:15;;;;;;;;;;;;;;;19.78;100.00;98379.97;1695541;84;25231;-84
2022/06/29 01:33:41;;;;;;;;;;;;;;;19.77;100.00;98375.16;1698704;84;20302;-86
2022/06/29 01:36:07;;;;;;;;;;;;;;;19.63;100.00;98366.54;1697371;84;24763;-87
2022/06/29 01:38:35;;;;;;;;;;;;;;;19.60;100.00;98366.36;1695295;84;22063;-84
2022/06/29 01:41:01;;;;;;;;;;;;;;;19.60;100.00;98362.37;1698094;84;26062;-84
2022/06/29 01:43:26;;;;;;;;;;;;;;;19.49;100.00;98356.06;1695316;84;20418;-84
2022/06/29 01:45:52;;;;;;;;;;;;;;;19.40;100.00;98353.05;1697852;84;21186;-89
2022/06/29 01:48:18;;;;;;;;;;;;;;;19.20;100.00;98354.36;1697961;84;20350;-85
2022/06/29 01:50:44;;;;;;;;;;;;;;;19.04;100.00;98349.83;1695558;84;20266;-86
2022/06/29 01:53:10;;;;;;;;;;;;;;;18.95;100.00;98349.48;1698805;84;21691;-85
2022/06/29 01:55:36;;;;;;;;;;;;;;;19.00;100.00;98348.99;1695337;84;20329;-86
2022/06/29 01:58:02;;;;;;;;;;;;;;;19.03;100.00;98340.23;1696230;84;20632;-86
2022/06/29 02:00:34;;;;;;;;;;;;;;;18.94;100.00;98339.86;1695999;84;20230;-85
2022/06/29 02:02:59;;;;;;;;;;;;;;;18.88;100.00;98337.02;1694824;84;22041;-86
2022/06/29 02:05:25;;;;;;;;;;;;;;;18.93;100.00;98338.72;1696981;84;20988;-86
2022/06/29 02:07:51;;;;;;;;;;;;;;;19.08;100.00;98335.77;1694387;84;20435;-90
2022/06/29 02:10:17;;;;;;;;;;;;;;;19.19;100.00;98326.16;1692302;84;20228;-90
2022/06/29 02:12:43;;;;;;;;;;;;;;;19.25;100.00;98329.98;1681154;84;20332;-85
2022/06/29 02:15:09;;;;;;;;;;;;;;;19.15;100.00;98330.11;1679737;85;20317;-85
2022/06/29 02:17:35;;;;;;;;;;;;;;;19.06;100.00;98331.10;1679960;85;26039;-87
2022/06/29 02:20:01;;;;;;;;;;;;;;;18.94;100.00;98325.77;1679959;85;20861;-86
2022/06/29 02:22:27;;;;;;;;;;;;;;;18.84;100.00;98327.24;1680400;84;20797;-85
2022/06/29 02:24:53;;;;;;;;;;;;;;;18.78;100.00;98320.77;1677607;85;20294;-87
2022/06/29 02:27:20;;;;;;;;;;;;;;;18.71;100.00;98316.28;1680470;85;20231;-85
2022/06/29 02:29:46;;;;;;;;;;;;;;;18.63;100.00;98313.09;1655292;85;25049;-90
2022/06/29 02:34:56;;;;;;;;;;;;;;;18.65;100.00;98308.48;1678457;85;20224;-89
2022/06/29 02:37:25;;;;;;;;;;;;;;;18.68;100.00;98308.14;1677546;85;25414;-85
2022/06/29 02:39:51;;;;;;;;;;;;;;;18.67;100.00;98301.17;1683451;85;20227;-85
2022/06/29 02:42:22;;;;;;;;;;;;;;;18.68;100.00;98298.03;1683504;85;21504;-87
2022/06/29 02:44:48;;;;;;;;;;;;;;;18.64;100.00;98286.94;1678708;85;24495;-85
2022/06/29 02:47:14;;;;;;;;;;;;;;;18.64;100.00;98279.47;1678852;85;20345;-86
2022/06/29 02:49:40;;;;;;;;;;;;;;;18.64;100.00;98271.03;1681294;85;20270;-84
2022/06/29 02:52:06;;;;;;;;;;;;;;;18.62;100.00;98270.84;1679213;85;20539;-86
2022/06/29 02:54:32;;;;;;;;;;;;;;;18.60;100.00;98272.84;1680852;85;26033;-84
2022/06/29 02:56:58;;;;;;;;;;;;;;;18.64;100.00;98273.67;1680314;85;20306;-84
2022/06/29 02:59:24;;;;;;;;;;;;;;;18.70;100.00;98274.36;1678033;85;20298;-85
2022/06/29 03:01:50;;;;;;;;;;;;;;;18.76;100.00;98268.91;1682013;85;24804;-89
2022/06/29 03:04:16;;;;;;;;;;;;;;;18.82;100.00;98268.75;1678167;85;20224;-89
2022/06/29 03:06:42;;;;;;;;;;;;;;;18.87;100.00;98269.09;1678783;85;21022;-86
2022/06/29 03:09:10;;;;;;;;;;;;;;;18.91;100.00;98271.73;1682745;85;20235;-85
2022/06/29 03:11:35;;;;;;;;;;;;;;;18.92;100.00;98275.56;1679011;83;20311;-89
2022/06/29 03:14:02;;;;;;;;;;;;;;;18.94;100.00;98277.53;1682261;85;20246;-85
2022/06/29 03:16:28;;;;;;;;;;;;;;;18.94;100.00;98270.07;1680971;85;21998;-85
2022/06/29 03:18:54;;;;;;;;;;;;;;;18.92;100.00;98267.61;1679199;85;26006;-85
2022/06/29 03:21:20;;;;;;;;;;;;;;;18.89;100.00;98260.45;1679129;85;20255;-84
2022/06/29 03:23:46;;;;;;;;;;;;;;;18.90;100.00;98263.45;1683677;85;20369;-84
2022/06/29 03:26:12;;;;;;;;;;;;;;;18.95;100.00;98269.92;1678060;85;20258;-86
2022/06/29 03:28:38;;;;;;;;;;;;;;;19.06;100.00;98271.42;1680324;85;22018;-85
2022/06/29 03:31:04;;;;;;;;;;;;;;;19.20;100.00;98286.18;1677250;85;21016;-85
2022/06/29 03:33:30;;;;;;;;;;;;;;;19.38;100.00;98284.70;1681129;85;24372;-85
2022/06/29 03:35:58;;;;;;;;;;;;;;;19.39;100.00;98281.05;1681617;85;21281;-89
2022/06/29 03:38:29;;;;;;;;;;;;;;;19.40;100.00;98284.05;1681481;85;24950;-87
2022/06/29 03:40:54;;;;;;;;;;;;;;;19.57;100.00;98287.56;1681457;84;20225;-89
2022/06/29 03:43:20;;;;;;;;;;;;;;;19.79;100.00;98294.00;1681494;85;20946;-84
2022/06/29 03:45:47;;;;;;;;;;;;;;;19.90;100.00;98296.30;1679836;85;20242;-84
2022/06/29 03:48:15;;;;;;;;;;;;;;;20.03;100.00;98293.94;1676955;85;20541;-87
2022/06/29 03:50:41;;;;;;;;;;;;;;;20.19;100.00;98295.22;1680464;85;24734;-86
2022/06/29 03:53:07;;;;;;;;;;;;;;;20.34;100.00;98292.23;1678105;85;20850;-85
2022/06/29 03:55:33;;;;;;;;;;;;;;;20.49;100.00;98292.82;1679908;85;21046;-87
2022/06/29 03:57:59;;;;;;;;;;;;;;;20.54;100.00;98290.47;1678041;85;20286;-87
2022/06/29 04:00:24;;;;;;;;;;;;;;;20.43;100.00;98285.87;1677326;85;20278;-85
2022/06/29 04:02:52;;;;;;;;;;;;;;;20.45;100.00;98283.05;1681430;85;25490;-89
2022/06/29 04:05:19;;;;;;;;;;;;;;;20.46;100.00;98278.03;1679480;85;21978;-90
2022/06/29 04:07:45;;;;;;;;;;;;;;;20.47;100.00;98279.69;1682885;85;25988;-86
2022/06/29 04:10:11;;;;;;;;;;;;;;;20.44;100.00;98280.05;1681962;84;20653;-89
2022/06/29 04:12:42;;;;;;;;;;;;;;;20.41;100.00;98282.54;1697177;84;51489;-87
2022/06/29 04:15:09;;;;;;;;;;;;;;;20.30;100.00;98278.06;1696717;84;24715;-86
2022/06/29 04:17:35;;;;;;;;;;;;;;;20.20;100.00;98278.28;1696613;84;21952;-90
2022/06/29 04:20:04;;;;;;;;;;;;;;;20.16;100.00;98268.16;1694680;84;26003;-87
2022/06/29 04:22:32;;;;;;;;;;;;;;;20.15;100.00;98272.65;1697355;84;25174;-89
2022/06/29 04:25:01;;;;;;;;;;;;;;;20.34;100.00;98270.13;1698169;84;20489;-89
2022/06/29 04:27:28;;;;;;;;;;;;;;;20.34;100.00;98264.32;1698582;84;25545;-86
2022/06/29 04:29:54;;;;;;;;;;;;;;;20.28;100.00;98258.83;1697734;84;22291;-85
2022/06/29 04:32:22;;;;;;;;;;;;;;;20.27;100.00;98260.65;1695625;84;21125;-85
2022/06/29 04:34:48;;;;;;;;;;;;;;;20.41;100.00;98261.27;1697464;84;25171;-90
2022/06/29 04:37:14;;;;;;;;;;;;;;;20.55;100.00;98259.73;1698863;84;20777;-86
2022/06/29 04:39:42;;;;;;;;;;;;;;;20.74;100.00;98265.09;1697344;84;20403;-85
2022/06/29 04:42:09;;;;;;;;;;;;;;;20.93;100.00;98258.50;1695223;84;42459;-85
2022/06/29 04:44:35;;;;;;;;;;;;;;;21.02;100.00;98260.92;1698000;84;57353;-85
2022/06/29 04:47:01;;;;;;;;;;;;;;;21.00;100.00;98253.61;1693351;84;199809;-90
2022/06/29 04:49:27;;;;;;;;;;;;;;;20.99;100.00;98256.47;1698101;84;20901;-90
2022/06/29 04:51:59;;;;;;;;;;;;;;;20.98;100.00;98254.80;1697271;84;20749;-85
2022/06/29 04:54:25;;;;;;;;;;;;;;;20.97;100.00;98253.97;1694835;84;22089;-86
2022/06/29 04:56:57;;;;;;;;;;;;;;;21.02;100.00;98258.26;1694237;84;26001;-90
2022/06/29 04:59:23;;;;;;;;;;;;;;;21.08;100.00;98258.88;1697857;84;24511;-86
2022/06/29 05:01:49;;;;;;;;;;;;;;;21.16;100.00;98258.88;1694758;84;20887;-85
2022/06/29 05:04:17;;;;;;;;;;;;;;;21.28;100.00;98265.91;1697051;84;20223;-86
2022/06/29 05:06:43;;;;;;;;;;;;;;;21.34;100.00;98267.02;1695556;84;22083;-87
2022/06/29 05:09:09;;;;;;;;;;;;;;;21.34;100.00;98263.03;1698792;84;20968;-85
2022/06/29 05:11:35;;;;;;;;;;;;;;;21.35;100.00;98263.36;1691018;84;20876;-86
2022/06/29 05:14:01;;;;;;;;;;;;;;;21.33;100.00;98270.19;1686736;84;20215;-86
2022/06/29 05:16:27;;;;;;;;;;;;;;;21.34;100.00;98265.20;1687706;84;20277;-86
2022/06/29 05:18:57;;;;;;;;;;;;;;;21.34;100.00;98259.04;1686153;85;22770;-85
2022/06/29 05:21:29;;;;;;;;;;;;;;;21.35;100.00;98254.87;1686863;85;26039;-86
2022/06/29 05:23:55;;;;;;;;;;;;;;;21.34;100.00;98260.37;1686514;83;24499;-86
2022/06/29 05:26:27;;;;;;;;;;;;;;;21.38;100.00;98260.36;1687235;84;20302;-89
2022/06/29 05:28:54;;;;;;;;;;;;;;;21.39;100.00;98269.48;1688319;85;24796;-86
2022/06/29 05:31:23;;;;;;;;;;;;;;;21.46;100.00;98270.42;1687142;85;21989;-86
2022/06/29 05:33:57;;;;;;;;;;;;;;;21.52;100.00;98259.55;1688455;83;26716;-85
2022/06/29 05:36:23;;;;;;;;;;;;;;;21.56;100.00;98260.34;1687455;84;24531;-86
2022/06/29 05:38:48;;;;;;;;;;;;;;;21.63;100.00;98261.78;1688653;85;20805;-86
2022/06/29 05:41:15;;;;;;;;;;;;;;;21.73;100.00;98265.01;1687975;83;20243;-86
2022/06/29 05:43:43;;;;;;;;;;;;;;;21.85;100.00;98269.39;1689257;83;22609;-86
2022/06/29 05:46:09;;;;;;;;;;;;;;;21.88;100.00;98267.17;1685269;85;25970;-86
2022/06/29 05:48:37;;;;;;;;;;;;;;;21.94;100.00;98266.48;1686017;85;20318;-87
2022/06/29 05:51:03;;;;;;;;;;;;;;;22.01;100.00;98267.91;1687309;85;20608;-90
2022/06/29 05:53:30;;;;;;;;;;;;;;;22.06;100.00;98269.02;1656283;85;20305;-89
2022/06/29 05:55:56;;;;;;;;;;;;;;;22.10;100.00;98272.97;1677271;85;20304;-89
2022/06/29 05:58:23;;;;;;;;;;;;;;;22.13;100.00;98275.78;1672955;85;26049;-86
2022/06/29 06:00:49;;;;;;;;;;;;;;;22.16;100.00;98267.41;1682062;84;24407;-85
2022/06/29 06:03:17;;;;;;;;;;;;;;;22.17;100.00;98266.91;1681462;84;20230;-86
2022/06/29 06:05:44;;;;;;;;;;;;;;;22.23;100.00;98268.84;1693432;83;24888;-87
2022/06/29 06:08:12;;;;;;;;;;;;;;;22.29;100.00;98263.59;1688008;84;21973;-86
2022/06/29 06:10:42;;;;;;;;;;;;;;;22.35;100.00;98264.19;1685866;84;26650;-89
2022/06/29 06:13:08;;;;;;;;;;;;;;;22.40;100.00;98269.79;1648029;85;24586;-86
2022/06/29 06:15:34;;;;;;;;;;;;;;;22.44;100.00;98268.91;1619185;88;20266;-85
2022/06/29 06:18:04;;;;;;;;;;;;;;;22.46;100.00;98272.22;1635247;86;24897;-85
2022/06/29 06:20:32;;;;;;;;;;;;;;;22.51;100.00;98272.48;1629310;87;22068;-85
2022/06/29 06:23:08;;;;;;;;;;;;;;;22.58;100.00;98271.24;1628581;87;26223;-85
2022/06/29 06:25:34;;;;;;;;;;;;;;;22.58;100.00;98272.07;1630633;87;24441;-85
2022/06/29 06:28:05;;;;;;;;;;;;;;;22.63;100.00;98265.66;1644344;87;21158;-85
2022/06/29 06:30:30;;;;;;;;;;;;;;;22.68;100.00;98277.94;1644612;87;24773;-85
2022/06/29 06:32:56;;;;;;;12.30;10.32;;;;;;;22.74;100.00;98277.22;1639793;86;20656;-86
2022/06/29 06:35:32;;;;;;;11.00;9.20;;;;;;;22.78;100.00;98282.48;1640263;87;28152;-86
2022/06/29 06:37:59;;;;;;;;;;;;;;;22.86;100.00;98285.03;1642059;87;68889;-89
2022/06/29 06:43:09;;;;;;;;;;;;;;;23.00;100.00;98278.52;1636955;86;199775;-90
2022/06/29 06:45:35;;;;;;;;;;;;;;;23.05;100.00;98286.27;1644491;86;21379;-90
2022/06/29 06:48:07;;;;;;;;;;;;;;;23.15;100.00;98283.28;1645289;87;21454;-90
2022/06/29 06:50:33;;;;;;;;;;;;;;;23.22;100.00;98286.85;1641905;87;38258;-86
2022/06/29 06:53:01;;;;;;;;;;;;;;;23.25;100.00;98282.45;1672456;85;20719;-86
2022/06/29 06:55:27;;;;;;;;;;;;;;;23.26;100.00;98281.44;1671758;85;50161;-90
2022/06/29 06:57:54;;;;;;;;;;;;;;;23.31;100.00;98278.52;1668859;85;24384;-89
2022/06/29 07:00:21;;;;;;;11.00;9.95;;;;;;;23.37;100.00;98278.26;1666951;85;55812;-85
2022/06/29 07:02:47;;;;;;;;;;;;;;;23.41;100.00;98277.35;1659743;85;187210;-86
2022/06/29 07:05:19;;;;;;;;;;;;;;;23.44;100.00;98283.66;1665268;85;38716;-90
2022/06/29 07:07:46;;;;;;;;;;;;;;;23.51;100.00;98279.24;1670938;85;25324;-89
2022/06/29 07:10:12;;;;;;;;;;;;;;;23.58;100.00;98280.94;1670786;84;21997;-90
2022/06/29 07:12:37;;;;;;;;;;;;;;;23.71;100.00;98278.37;1674734;84;170503;-86
2022/06/29 07:15:04;;;;;;;;;;;;;;;23.83;100.00;98269.31;1676839;84;72898;-86
2022/06/29 07:17:30;;;;;;;;;;;;;;;23.85;100.00;98277.95;1689932;84;21343;-86
2022/06/29 07:19:56;;;;;;;;;;;;;;;23.86;100.00;98272.09;1695645;84;20774;-86
2022/06/29 07:22:21;;;;;;;;;;;;;;;23.92;100.00;98266.80;1693966;84;32936;-86
2022/06/29 07:24:47;;;;;;;10.08;9.08;;;;;;;23.97;100.00;98267.03;1691869;83;27890;-86
2022/06/29 07:27:13;;;;;;;10.45;9.43;;;;;;;23.98;100.00;98263.34;1690565;84;116686;-86
2022/06/29 07:29:40;;;;;;;;;;;;;;;24.01;100.00;98264.78;1695187;84;28090;-86
2022/06/29 07:32:12;;;;;;;10.32;9.28;;;;;;;24.04;100.00;98263.90;1692936;84;24815;-85
2022/06/29 07:34:38;;;;;;;10.30;9.23;;;;;;;24.05;100.00;98254.86;1691767;84;49399;-85
2022/06/29 07:37:04;;;;;;;8.98;8.05;;;;;;;24.05;100.00;98256.70;1692998;84;28181;-86
2022/06/29 07:39:30;;;;;;;12.20;8.85;;;;;;;24.11;100.00;98253.25;1692686;83;28153;-89
2022/06/29 07:41:57;;;;;;;10.28;8.58;;;;;;;24.16;100.00;98253.48;1692814;84;23351;-89
2022/06/29 07:44:24;;;;;;;10.75;8.90;;;;;;;24.19;100.00;98255.78;1693720;84;28212;-89
2022/06/29 07:46:50;;;;;;;11.10;9.80;;;;;;;24.21;100.00;98254.25;1692168;84;28457;-89
2022/06/29 07:49:16;;;;;;;11.80;9.20;;;;;;;24.24;100.00;98247.98;1692066;84;28097;-85
2022/06/29 07:51:43;;;;;;;9.98;8.68;;;;;;;24.29;100.00;98249.55;1692106;84;28094;-85
2022/06/29 07:54:15;;;;;;;10.78;9.05;;;;;;;24.38;100.00;98245.70;1689969;84;28112;-86
2022/06/29 07:56:44;;;;;;;10.85;9.43;;;;;;;24.46;100.00;98250.04;1692068;84;28050;-85
2022/06/29 07:59:10;;;;;;;10.25;8.93;;;;;;;24.53;100.00;98241.53;1694021;83;28157;-85
2022/06/29 08:01:36;;;;;;;10.88;9.88;;;;;;;24.62;100.00;98244.34;1690334;84;28090;-86
2022/06/29 08:04:03;;;;;;;10.05;8.65;;;;;;;24.71;100.00;98236.97;1692396;84;28007;-85
2022/06/29 08:06:38;;;;;;;9.33;8.25;;;;;;;24.73;100.00;98228.20;1691047;83;28137;-86
2022/06/29 08:09:05;;;;;;;10.80;9.33;;;;;;;24.74;100.00;98220.49;1689148;84;28264;-86
2022/06/29 08:11:32;;;;;;;10.32;9.23;;;;;;;24.77;100.00;98226.77;1689423;84;28053;-86
2022/06/29 08:13:58;;;;;;;9.03;8.13;;;;;;;24.82;100.00;98222.45;1673391;84;28157;-86
2022/06/29 08:16:27;;;;;;;11.35;9.88;;;;;;;24.85;100.00;98219.39;1675856;84;27992;-85
2022/06/29 08:19:07;;;;;;;10.45;8.75;;;;;;;24.87;100.00;98225.37;1675910;85;28083;-86
2022/06/29 08:21:33;;;;;;;9.10;8.15;;;;;;;24.96;100.00;98224.18;1674532;85;28045;-85
2022/06/29 08:24:01;;;;;;;10.80;9.70;;;;;;;25.00;100.00;98221.40;1674834;85;28086;-85
2022/06/29 08:26:27;;;;;;;10.75;9.05;;;;;;;25.03;100.00;98214.00;1673022;85;28121;-84
2022/06/29 08:28:53;;;;;;;8.95;8.05;;;;;;;25.09;100.00;98219.37;1644184;85;28155;-89
2022/06/29 08:31:19;;;;;;;10.65;9.55;;;;;;;25.17;100.00;98216.48;1673190;84;28116;-85
2022/06/29 08:33:48;;;;;;;10.68;9.33;;;;;;;25.27;100.00;98214.72;1674875;85;28140;-84
2022/06/29 08:36:14;;;;;;;10.60;9.50;;;;;;;25.35;100.00;98210.00;1674578;85;28044;-85
2022/06/29 08:38:40;;;;;;;9.90;8.98;;;;;;;25.40;100.00;98203.50;1674453;85;28059;-85
2022/06/29 08:41:09;;;;;;;9.53;8.50;;;;;;;25.47;100.00;98207.53;1676657;84;28042;-85
2022/06/29 08:43:35;;;;;;;11.65;10.40;;;;;;;25.55;100.00;98209.98;1672835;85;27998;-85
2022/06/29 08:46:01;;;;;;;10.23;9.23;;;;;;;25.60;100.00;98210.72;1673964;85;28126;-86
2022/06/29 08:48:27;;;;;;;10.03;8.93;;;;;;;25.60;100.00;98213.40;1675668;85;28153;-85
2022/06/29 08:50:54;;;;;;;10.65;8.45;;;;;;;25.62;100.00;98204.65;1675871;85;27996;-86
2022/06/29 08:53:22;;;;;;;9.45;8.50;;;;;;;25.65;100.00;98206.38;1619380;86;28079;-86
2022/06/29 08:55:50;;;;;;;9.40;8.50;;;;;;;25.72;100.00;98202.36;1604019;88;28210;-89
2022/06/29 08:58:22;;;;;;;11.00;8.33;;;;;;;25.79;100.00;98204.01;1675090;85;28086;-85
2022/06/29 09:00:51;;;;;;;12.10;9.03;;;;;;;25.85;100.00;98212.25;1674109;85;28130;-84
2022/06/29 09:03:19;;;;;;;10.08;9.08;;;;;;;25.90;100.00;98204.39;1672875;85;28595;-85
2022/06/29 09:05:49;;;;;;;9.95;8.78;;;;;;;25.95;100.00;98206.75;1674962;85;28048;-89
2022/06/29 09:08:17;;;;;;;11.73;8.93;;;;;;;26.05;100.00;98204.45;1675708;85;28086;-85
2022/06/29 09:10:43;;;;;;;9.28;8.43;;;;;;;26.16;100.00;98198.95;1676332;85;28031;-85
2022/06/29 09:13:09;;;;;;;9.95;8.65;;;;;;;26.17;100.00;98195.23;1685572;84;28101;-86
2022/06/29 09:15:40;;;;;;;10.10;9.10;;;;;;;26.31;100.00;98198.19;1689487;84;28079;-86
2022/06/29 09:18:25;;;;;;;;;;;;;;;26.44;100.00;98199.48;1695769;84;28147;-85
2022/06/29 09:20:55;;;;;;;10.03;8.98;;;;;;;26.48;100.00;98202.55;1690090;84;20245;-84
2022/06/29 09:23:23;;;;;;;11.30;8.73;;;;;;;26.49;100.00;98199.66;1690120;84;28089;-85
2022/06/29 09:25:52;;;;;;;9.38;8.48;;;;;;;26.54;100.00;98195.81;1689510;83;28133;-89
2022/06/29 09:28:27;;;;;;;10.10;9.10;;;;;;;26.58;100.00;98197.03;1689491;84;28102;-85
2022/06/29 09:30:55;;;;;;;9.28;8.38;;;;;;;26.62;100.00;98186.16;1690862;84;28075;-85
2022/06/29 09:33:26;;;;;;;9.13;8.23;;;;;;;26.66;100.00;98181.20;1689422;84;28089;-85
2022/06/29 09:36:17;;;;;;;;;;;;;;;26.71;100.00;98180.03;1697628;84;28067;-84
2022/06/29 09:38:45;;;;;;;10.23;8.60;;;;;;;26.78;100.00;98183.50;1691995;84;22321;-85
2022/06/29 09:41:13;;;;;;;9.88;8.35;;;;;;;26.96;100.00;98190.31;1690466;84;28090;-89
2022/06/29 09:43:42;;;;;;;10.08;8.28;;;;;;;27.03;100.00;98178.19;1688655;84;28067;-85
2022/06/29 09:46:10;;;;;;;9.03;8.13;;;;;;;27.11;100.00;98181.14;1697613;83;28117;-85
2022/06/29 09:48:39;;;;;;;9.80;8.85;;;;;;;27.13;100.00;98179.03;1692602;83;28106;-85
2022/06/29 09:54:01;;;;;;;10.80;9.43;;;;;;;27.17;100.00;98180.23;1691611;84;28082;-89
2022/06/29 09:56:30;;;;;;;9.90;8.90;;;;;;;27.24;100.00;98177.81;1694242;84;28101;-89
2022/06/29 09:58:58;;;;;;;10.78;8.58;;;;;;;27.36;100.00;98169.86;1694828;84;28151;-89
2022/06/29 10:04:12;;;;;;;9.20;8.10;;;;;;;27.63;100.00;98163.73;1672478;84;28096;-89
2022/06/29 10:06:39;;;;;;;9.88;7.85;;;;;;;27.88;100.00;98169.35;1692259;84;28087;-85
2022/06/29 10:09:06;;;;;;;11.80;9.13;;;;;;;28.04;100.00;98175.20;1691884;84;28200;-85
2022/06/29 10:14:50;;;;;;;9.18;8.28;;;;;;;28.00;100.00;98165.39;1692722;84;28067;-85
2022/06/29 10:17:45;;;;;;;10.08;8.53;;;;;;;28.01;100.00;98161.66;1692492;84;28132;-89
2022/06/29 10:20:24;;;;;;;9.68;8.73;;;;;;;28.04;100.00;98161.20;1692424;84;28100;-85
2022/06/29 10:22:51;;;;;;;8.75;7.92;;;;;;;28.19;100.00;98162.21;1688876;84;28079;-84
2022/06/29 10:25:23;;;;;;;9.28;8.30;;;;;;;28.39;100.00;98165.98;1692203;84;28105;-84
2022/06/29 10:28:07;;;;;;;10.08;8.48;;;;;;;28.53;100.00;98162.88;1692334;84;28150;-85
2022/06/29 10:30:41;;;;;;;9.73;7.92;;;;;;;28.65;100.00;98162.40;1692110;84;28176;-84
2022/06/29 10:33:33;;;;;;;8.53;7.72;;;;;;;28.66;100.00;98158.66;1691623;84;28125;-84
2022/06/29 10:36:06;;;;;;;8.60;7.80;;;;;;;28.66;100.00;98153.80;1694196;84;28066;-85
2022/06/29 10:39:05;;;;;;;10.30;8.60;;;;;;;28.67;100.00;98152.23;1692192;84;28026;-84
2022/06/29 10:44:23;;;;;;;8.98;7.37;;;;;;;29.01;100.00;98144.50;1690424;84;28078;-84
2022/06/29 10:46:57;;;;;;;10.20;7.92;;;;;;;29.07;100.00;98146.27;1690723;84;28085;-88
2022/06/29 10:49:25;;;;;;;7.80;7.10;;;;;;;29.17;100.00;98144.34;1692621;84;28070;-89
2022/06/29 10:51:51;;;;;;;8.95;8.05;;;;;;;29.20;100.00;98140.64;1691902;84;28154;-89
2022/06/29 10:54:29;;;;;;;8.30;7.42;;;;;;;29.18;100.00;98138.73;1688319;84;28067;-89
2022/06/29 10:56:56;;;;;;;9.00;8.10;;;;;;;29.41;100.00;98137.92;1694166;84;28090;-84
2022/06/29 10:59:36;;;;;;;8.65;7.72;;;;;;;29.44;100.00;98127.52;1687541;84;28083;-84
2022/06/29 11:02:17;;;;;;;8.20;7.40;;;;;;;29.61;100.00;98130.84;1693059;84;28178;-84
2022/06/29 11:04:44;;;;;;;6.50;5.58;;;;;;;29.73;100.00;98131.09;1693818;84;28002;-86
2022/06/29 11:12:52;;;;;;;7.35;6.72;;;;;;;29.49;100.00;98129.50;1690000;84;28105;-84
2022/06/29 11:15:45;;;;;;;9.03;7.62;;;;;;;29.56;100.00;98126.69;1667691;85;28087;-84
2022/06/29 11:18:19;;;;;;;8.73;7.75;;;;;;;29.60;100.00;98120.58;1645477;84;28112;-88
2022/06/29 11:20:49;;;;;;;7.67;6.83;;;;;;;29.66;100.00;98121.51;1641913;86;28117;-88
2022/06/29 11:23:17;;;;;;;10.60;8.70;;;;;;;29.84;100.00;98117.33;1636888;87;28041;-86
2022/06/29 11:25:52;;;;;;;8.98;7.30;;;;;;;29.77;100.00;98129.59;1643849;85;28128;-86
2022/06/29 11:28:19;;;;;;;9.18;7.70;;;;;;;29.69;100.00;98129.11;1658493;85;28073;-85
2022/06/29 11:31:03;;;;;;;10.13;8.30;;;;;;;29.76;100.00;98122.55;1688671;84;28485;-86
2022/06/29 11:33:32;;;;;;;7.75;6.70;;;;;;;29.93;100.00;98126.19;1672194;84;28115;-84
2022/06/29 11:36:19;;;;;;;8.28;7.25;;;;;;;29.92;100.00;98124.54;1641354;87;28078;-86
2022/06/29 11:38:49;;;;;;;9.23;7.92;;;;;;;29.76;100.00;98114.98;1637194;86;28097;-86
2022/06/29 11:41:18;;;;;;;10.28;7.83;;;;;;;29.67;100.00;98117.77;1639262;87;28044;-88
2022/06/29 11:43:45;;;;;;;8.60;7.80;;;;;;;29.64;100.00;98117.69;1634098;86;28091;-89
2022/06/29 11:46:27;;;;;;;8.55;7.45;;;;;;;29.49;100.00;98117.36;1656608;86;28615;-84
2022/06/29 11:51:52;;;;;;;9.65;7.37;;;;;;;29.26;100.00;98105.20;1686885;84;28196;-86
2022/06/29 11:54:22;;;;;;;8.50;7.42;;;;;;;29.25;100.00;98104.38;1687018;83;28038;-86
2022/06/29 11:56:50;;;;;;;8.53;7.60;;;;;;;29.16;100.00;98099.57;1676774;84;28166;-86
2022/06/29 11:59:17;;;;;;;7.58;6.87;;;;;;;29.07;100.00;98108.55;1682059;84;28109;-86
2022/06/29 12:01:54;;;;;;;8.08;7.28;;;;;;;29.21;100.00;98118.03;1681344;83;28067;-86
2022/06/29 12:04:30;;;;;;;7.03;5.97;;;;;;;29.49;100.00;98115.48;1682404;84;28121;-86
2022/06/29 12:07:16;;;;;;;7.90;7.08;;;;;;;29.73;100.00;98103.33;1680308;84;28152;-86
2022/06/29 12:09:41;;;;;;;7.65;6.78;;;;;;;29.84;100.00;98103.28;1680994;84;28090;-86
2022/06/29 12:12:10;;;;;;;7.55;6.80;;;;;;;29.92;100.00;98099.43;1677144;84;28133;-86
2022/06/29 12:14:40;;;;;;;8.20;6.70;;;;;;;29.99;100.00;98091.20;1660649;84;28014;-86
2022/06/29 12:17:10;;;;;;;11.75;6.53;;;;;;;30.06;100.00;98083.23;1644893;84;28074;-86
2022/06/29 12:19:38;;;;;;;7.37;6.15;;;;;;;30.25;100.00;98082.53;1624857;87;28280;-86
2022/06/29 12:22:07;;;;;;;6.28;5.67;;;;;;;30.34;100.00;98081.89;1654541;85;28014;-86
2022/06/29 12:24:33;;;;;;;7.15;6.45;;;;;;;30.54;100.00;98090.95;1651563;86;28127;-85
2022/06/29 12:27:02;;;;;;;6.58;5.92;;;;;;;30.65;100.00;98094.64;1611148;88;28016;-86
2022/06/29 12:29:29;;;;;;;9.43;5.70;;;;;;;30.68;100.00;98093.61;1639325;85;28084;-86
2022/06/29 12:31:55;;;;;;;6.72;6.10;;;;;;;30.63;100.00;98091.35;1610787;87;28218;-89
2022/06/29 12:34:21;;;;;;;8.53;6.22;;;;;;;30.50;100.00;98095.70;1639035;87;28009;-89
2022/06/29 12:36:48;;;;;;;7.83;6.45;;;;;;;30.42;100.00;98087.97;1617500;87;28180;-85